SLC Intl Airport
, Salt Lake City
Last Weather Update:12/31/2011
Date
ETo
ETc
Rain
Irrigation
Req
Temp
Max
Temp
Min
Temp
Avg
Avg RH
Avg Wind
Avg Solar
inches
inches
incehs
inches
F
F
F
%
%
watts/m2
11/01/2011 0.06" 0.00" 0.29" -0.23" 51.1° 33.3° 42.2° 68.1% 9.7 MPH 81.6w/m2
11/02/2011 0.07" 0.00" 0.00" 0.00" 47.2° 27.9° 36.5° 59.4% 3.5 MPH 177.8w/m2
11/03/2011 0.11" 0.00" 0.00" 0.00" 57.0° 30.1° 43.4° 44.6% 8.2 MPH 161.7w/m2
11/04/2011 0.14" 0.00" 0.16" -0.13" 62.8° 32.7° 49.5° 40.4% 11.2 MPH 128.6w/m2
11/05/2011 0.04" 0.00" 0.24" -0.19" 37.2° 30.3° 33.0° 74.8% 5.1 MPH 76.7w/m2
11/06/2011 0.06" 0.00" 0.00" 0.00" 45.0° 29.5° 37.1° 60.9% 5.1 MPH 144.2w/m2
11/07/2011 0.05" 0.00" 0.00" 0.00" 43.5° 31.1° 37.0° 71.2% 6.3 MPH 111.8w/m2
11/08/2011 0.05" 0.00" 0.00" 0.00" 40.4° 28.1° 33.7° 65.0% 2.1 MPH 149.3w/m2
11/09/2011 0.06" 0.00" 0.00" 0.00" 43.9° 26.3° 33.8° 61.7% 2.8 MPH 154.8w/m2
11/10/2011 0.06" 0.00" 0.00" 0.00" 50.2° 27.1° 36.0° 65.4% 2.9 MPH 151.5w/m2
11/11/2011 0.05" 0.00" 0.00" 0.00" 50.6° 25.7° 37.3° 66.7% 2.9 MPH 117.0w/m2
11/12/2011 0.06" 0.00" 0.15" -0.12" 51.5° 32.4° 42.7° 62.6% 10.6 MPH 15.5w/m2
11/13/2011 0.04" 0.00" 0.13" -0.10" 52.0° 34.5° 40.9° 75.9% 4.0 MPH 92.6w/m2
11/14/2011 0.09" 0.00" 0.00" 0.00" 56.3° 38.7° 45.7° 45.6% 5.3 MPH 130.0w/m2
11/15/2011 0.05" 0.00" 0.00" 0.00" 47.2° 35.0° 42.3° 47.2% 3.2 MPH 74.3w/m2
11/16/2011 0.06" 0.00" 0.00" 0.00" 46.8° 28.6° 37.6° 53.3% 1.9 MPH 138.0w/m2
11/17/2011 0.10" 0.00" 0.00" 0.00" 55.3° 34.0° 45.7° 34.9% 8.6 MPH 68.5w/m2
11/18/2011 0.08" 0.00" 0.05" -0.04" 53.1° 32.5° 44.2° 54.1% 12.3 MPH 34.6w/m2
11/19/2011 0.04" 0.00" 0.29" -0.23" 38.4° 26.5° 33.1° 78.7% 1.9 MPH 120.2w/m2
11/20/2011 0.02" 0.00" 0.00" 0.00" 37.7° 25.0° 32.0° 83.0% 2.7 MPH 52.4w/m2
11/21/2011 0.03" 0.00" 0.13" -0.10" 44.6° 32.7° 38.7° 87.6% 3.0 MPH 67.3w/m2
11/22/2011 0.07" 0.00" 0.00" 0.00" 53.7° 35.6° 43.9° 64.4% 6.5 MPH 116.3w/m2
11/23/2011 0.08" 0.00" 0.00" 0.00" 62.0° 39.8° 48.4° 48.2% 7.0 MPH 112.7w/m2
11/24/2011 0.09" 0.00" 0.00" 0.00" 60.2° 42.9° 51.1° 38.1% 7.0 MPH 74.3w/m2
11/25/2011 0.06" 0.00" 0.00" 0.00" 51.0° 31.9° 42.3° 52.3% 6.5 MPH 88.1w/m2
11/26/2011 0.05" 0.00" 0.00" 0.00" 41.0° 25.0° 32.9° 51.4% 1.9 MPH 131.3w/m2
11/27/2011 0.05" 0.00" 0.00" 0.00" 47.5° 26.5° 34.8° 59.0% 3.0 MPH 127.7w/m2
11/28/2011 0.03" 0.00" 0.00" 0.00" 45.6° 26.8° 35.3° 70.9% 2.3 MPH 78.2w/m2
11/29/2011 0.04" 0.00" 0.00" 0.00" 52.7° 27.7° 36.5° 71.9% 2.4 MPH 115.6w/m2
11/30/2011 0.03" 0.00" 0.01" -0.01" 43.5° 28.4° 35.3° 80.1% 4.7 MPH 78.5w/m2
Totals: 1.80" 0.00" 1.45" -1.16" 62.8° 25.0° 39.4° 61.2% 5.1 MPH 105.7w/m2